sensor_id;sensor_type;location;lat;lon;timestamp;pressure;altitude;pressure_sealevel;temperature;humidity
73338;BME280;61575;49.908;35.556;2024-01-15T00:00:35;97843.59;;;-3.90;94.29
73338;BME280;61575;49.908;35.556;2024-01-15T00:03:38;97845.41;;;-3.91;93.77
73338;BME280;61575;49.908;35.556;2024-01-15T00:06:40;97845.41;;;-3.91;94.31
73338;BME280;61575;49.908;35.556;2024-01-15T00:09:42;97829.91;;;-3.94;93.85
73338;BME280;61575;49.908;35.556;2024-01-15T00:12:44;97845.41;;;-3.91;93.89
73338;BME280;61575;49.908;35.556;2024-01-15T00:15:46;97843.38;;;-3.87;93.89
73338;BME280;61575;49.908;35.556;2024-01-15T00:18:48;97845.63;;;-3.83;93.49
73338;BME280;61575;49.908;35.556;2024-01-15T00:21:51;97837.16;;;-3.86;93.88
73338;BME280;61575;49.908;35.556;2024-01-15T00:24:53;97837.03;;;-3.85;93.59
73338;BME280;61575;49.908;35.556;2024-01-15T00:27:55;97834.31;;;-3.83;93.76
73338;BME280;61575;49.908;35.556;2024-01-15T00:30:57;97835.97;;;-3.82;93.49
73338;BME280;61575;49.908;35.556;2024-01-15T00:33:59;97836.22;;;-3.85;93.48
73338;BME280;61575;49.908;35.556;2024-01-15T00:37:01;97838.84;;;-3.85;93.84
73338;BME280;61575;49.908;35.556;2024-01-15T00:40:04;97839.31;;;-3.80;94.06
73338;BME280;61575;49.908;35.556;2024-01-15T00:43:06;97831.19;;;-3.77;93.33
73338;BME280;61575;49.908;35.556;2024-01-15T00:46:09;97834.66;;;-3.77;93.25
73338;BME280;61575;49.908;35.556;2024-01-15T00:49:12;97838.81;;;-3.74;93.26
73338;BME280;61575;49.908;35.556;2024-01-15T00:52:15;97839.91;;;-3.77;93.07
73338;BME280;61575;49.908;35.556;2024-01-15T00:55:17;97840.72;;;-3.76;92.94
73338;BME280;61575;49.908;35.556;2024-01-15T00:58:19;97841.69;;;-3.77;93.14
73338;BME280;61575;49.908;35.556;2024-01-15T01:01:21;97842.53;;;-3.77;93.33
73338;BME280;61575;49.908;35.556;2024-01-15T01:04:23;97831.31;;;-3.79;93.55
73338;BME280;61575;49.908;35.556;2024-01-15T01:07:25;97836.44;;;-3.77;93.47
73338;BME280;61575;49.908;35.556;2024-01-15T01:10:28;97832.63;;;-3.73;93.02
73338;BME280;61575;49.908;35.556;2024-01-15T01:13:30;97827.13;;;-3.70;93.42
73338;BME280;61575;49.908;35.556;2024-01-15T01:16:32;97835.72;;;-3.68;93.01
73338;BME280;61575;49.908;35.556;2024-01-15T01:19:40;97840.72;;;-3.65;92.92
73338;BME280;61575;49.908;35.556;2024-01-15T01:22:42;97838.69;;;-3.61;92.78
73338;BME280;61575;49.908;35.556;2024-01-15T01:25:44;97841.19;;;-3.60;92.42
73338;BME280;61575;49.908;35.556;2024-01-15T01:28:47;97843.69;;;-3.58;92.54
73338;BME280;61575;49.908;35.556;2024-01-15T01:31:49;97845.09;;;-3.54;92.54
73338;BME280;61575;49.908;35.556;2024-01-15T01:34:50;97850.22;;;-3.53;92.48
73338;BME280;61575;49.908;35.556;2024-01-15T01:37:52;97844.84;;;-3.51;92.77
73338;BME280;61575;49.908;35.556;2024-01-15T01:40:55;97836.16;;;-3.52;92.36
73338;BME280;61575;49.908;35.556;2024-01-15T01:43:57;97836.16;;;-3.52;92.26
73338;BME280;61575;49.908;35.556;2024-01-15T01:47:00;97837.81;;;-3.51;92.65
73338;BME280;61575;49.908;35.556;2024-01-15T01:50:03;97829.13;;;-3.51;92.54
73338;BME280;61575;49.908;35.556;2024-01-15T01:53:05;97828.88;;;-3.48;92.50
73338;BME280;61575;49.908;35.556;2024-01-15T01:56:08;97831.63;;;-3.50;91.90
73338;BME280;61575;49.908;35.556;2024-01-15T01:59:11;97833.53;;;-3.52;92.64
73338;BME280;61575;49.908;35.556;2024-01-15T02:02:13;97835.91;;;-3.49;92.62
73338;BME280;61575;49.908;35.556;2024-01-15T02:05:18;97837.31;;;-3.45;92.35
73338;BME280;61575;49.908;35.556;2024-01-15T02:08:22;97841.50;;;-3.42;92.12
73338;BME280;61575;49.908;35.556;2024-01-15T02:11:24;97836.13;;;-3.41;92.16
73338;BME280;61575;49.908;35.556;2024-01-15T02:14:26;97825.75;;;-3.42;91.86
73338;BME280;61575;49.908;35.556;2024-01-15T02:17:28;97823.94;;;-3.42;91.82
73338;BME280;61575;49.908;35.556;2024-01-15T02:20:30;97816.09;;;-3.42;91.99
73338;BME280;61575;49.908;35.556;2024-01-15T02:23:32;97825.75;;;-3.42;91.79
73338;BME280;61575;49.908;35.556;2024-01-15T02:26:34;97821.34;;;-3.42;91.85
73338;BME280;61575;49.908;35.556;2024-01-15T02:29:38;97824.66;;;-3.40;91.90
73338;BME280;61575;49.908;35.556;2024-01-15T02:32:40;97824.66;;;-3.40;91.97
73338;BME280;61575;49.908;35.556;2024-01-15T02:35:42;97824.53;;;-3.38;92.44
73338;BME280;61575;49.908;35.556;2024-01-15T02:38:44;97829.78;;;-3.38;92.27
73338;BME280;61575;49.908;35.556;2024-01-15T02:41:46;97828.00;;;-3.38;92.23
73338;BME280;61575;49.908;35.556;2024-01-15T02:44:48;97834.31;;;-3.40;91.93
73338;BME280;61575;49.908;35.556;2024-01-15T02:47:52;97833.75;;;-3.44;91.85
73338;BME280;61575;49.908;35.556;2024-01-15T02:50:54;97837.56;;;-3.48;91.87
73338;BME280;61575;49.908;35.556;2024-01-15T02:53:56;97842.34;;;-3.53;91.96
73338;BME280;61575;49.908;35.556;2024-01-15T02:56:58;97840.34;;;-3.60;92.06
73338;BME280;61575;49.908;35.556;2024-01-15T03:00:00;97844.03;;;-3.63;92.31
73338;BME280;61575;49.908;35.556;2024-01-15T03:03:02;97843.56;;;-3.68;92.02
73338;BME280;61575;49.908;35.556;2024-01-15T03:06:04;97839.06;;;-3.77;92.04
73338;BME280;61575;49.908;35.556;2024-01-15T03:09:06;97844.91;;;-3.85;92.00
73338;BME280;61575;49.908;35.556;2024-01-15T03:12:08;97846.81;;;-3.87;92.10
73338;BME280;61575;49.908;35.556;2024-01-15T03:15:10;97851.22;;;-3.87;91.80
73338;BME280;61575;49.908;35.556;2024-01-15T03:18:12;97843.84;;;-3.82;92.37
73338;BME280;61575;49.908;35.556;2024-01-15T03:21:15;97857.66;;;-3.80;92.35
73338;BME280;61575;49.908;35.556;2024-01-15T03:24:16;97860.03;;;-3.77;92.51
73338;BME280;61575;49.908;35.556;2024-01-15T03:27:18;97859.81;;;-3.74;92.59
73338;BME280;61575;49.908;35.556;2024-01-15T03:30:20;97861.94;;;-3.68;92.99
73338;BME280;61575;49.908;35.556;2024-01-15T03:33:22;97854.78;;;-3.66;92.98
73338;BME280;61575;49.908;35.556;2024-01-15T03:36:24;97850.03;;;-3.72;92.80
73338;BME280;61575;49.908;35.556;2024-01-15T03:39:26;97852.19;;;-3.77;93.02
73338;BME280;61575;49.908;35.556;2024-01-15T03:42:28;97862.19;;;-3.71;93.48
73338;BME280;61575;49.908;35.556;2024-01-15T03:45:30;97867.31;;;-3.81;94.00
73338;BME280;61575;49.908;35.556;2024-01-15T03:48:32;97873.63;;;-3.72;94.12
73338;BME280;61575;49.908;35.556;2024-01-15T03:51:34;97875.41;;;-3.73;95.24
73338;BME280;61575;49.908;35.556;2024-01-15T03:54:36;97875.53;;;-3.74;95.30
73338;BME280;61575;49.908;35.556;2024-01-15T03:57:39;97873.38;;;-3.69;95.47
73338;BME280;61575;49.908;35.556;2024-01-15T04:00:42;97868.50;;;-3.62;95.61
73338;BME280;61575;49.908;35.556;2024-01-15T04:03:44;97873.84;;;-3.64;95.89
73338;BME280;61575;49.908;35.556;2024-01-15T04:06:46;97885.06;;;-3.73;96.08
73338;BME280;61575;49.908;35.556;2024-01-15T04:09:48;97885.19;;;-3.63;95.77
73338;BME280;61575;49.908;35.556;2024-01-15T04:12:50;97879.34;;;-3.67;96.17
73338;BME280;61575;49.908;35.556;2024-01-15T04:15:52;97887.22;;;-3.89;97.22
73338;BME280;61575;49.908;35.556;2024-01-15T04:18:54;97886.38;;;-3.79;96.70
73338;BME280;61575;49.908;35.556;2024-01-15T04:21:56;97884.25;;;-3.74;96.02
73338;BME280;61575;49.908;35.556;2024-01-15T04:24:58;97893.53;;;-3.69;96.34
73338;BME280;61575;49.908;35.556;2024-01-15T04:28:00;97891.63;;;-3.67;96.52
73338;BME280;61575;49.908;35.556;2024-01-15T04:31:02;97888.16;;;-3.57;96.19
73338;BME280;61575;49.908;35.556;2024-01-15T04:34:05;97889.13;;;-3.58;96.08
73338;BME280;61575;49.908;35.556;2024-01-15T04:37:07;97900.94;;;-3.63;95.56
73338;BME280;61575;49.908;35.556;2024-01-15T04:40:09;97907.97;;;-3.64;95.75
73338;BME280;61575;49.908;35.556;2024-01-15T04:43:11;97904.88;;;-3.69;95.57
73338;BME280;61575;49.908;35.556;2024-01-15T04:46:13;97914.41;;;-3.79;95.62
73338;BME280;61575;49.908;35.556;2024-01-15T04:49:15;97908.69;;;-3.84;95.63
73338;BME280;61575;49.908;35.556;2024-01-15T04:52:17;97909.75;;;-3.87;95.65
73338;BME280;61575;49.908;35.556;2024-01-15T04:55:20;97918.81;;;-3.91;95.47
73338;BME280;61575;49.908;35.556;2024-01-15T04:58:22;97920.72;;;-3.93;95.84
73338;BME280;61575;49.908;35.556;2024-01-15T05:01:31;97917.50;;;-3.96;95.90
73338;BME280;61575;49.908;35.556;2024-01-15T05:04:33;97928.94;;;-3.97;95.48
73338;BME280;61575;49.908;35.556;2024-01-15T05:07:35;97927.88;;;-3.95;95.58
73338;BME280;61575;49.908;35.556;2024-01-15T05:10:37;97932.03;;;-3.92;96.07
73338;BME280;61575;49.908;35.556;2024-01-15T05:13:39;97930.25;;;-3.92;95.78
73338;BME280;61575;49.908;35.556;2024-01-15T05:16:47;97940.41;;;-3.87;95.89
73338;BME280;61575;49.908;35.556;2024-01-15T05:19:49;97937.88;;;-3.89;95.81
73338;BME280;61575;49.908;35.556;2024-01-15T05:22:51;97958.88;;;-3.89;95.94
73338;BME280;61575;49.908;35.556;2024-01-15T05:25:53;97955.41;;;-4.00;95.91
73338;BME280;61575;49.908;35.556;2024-01-15T05:28:55;97956.84;;;-3.96;95.69
73338;BME280;61575;49.908;35.556;2024-01-15T05:31:57;97963.88;;;-3.97;95.56
73338;BME280;61575;49.908;35.556;2024-01-15T05:35:03;97958.63;;;-3.97;95.70
73338;BME280;61575;49.908;35.556;2024-01-15T05:38:05;97961.00;;;-4.05;95.18
73338;BME280;61575;49.908;35.556;2024-01-15T05:41:07;97964.94;;;-3.99;95.17
73338;BME280;61575;49.908;35.556;2024-01-15T05:44:09;97975.31;;;-3.98;94.87
73338;BME280;61575;49.908;35.556;2024-01-15T05:47:11;97981.88;;;-3.92;95.06
73338;BME280;61575;49.908;35.556;2024-01-15T05:50:13;97982.81;;;-3.93;94.68
73338;BME280;61575;49.908;35.556;2024-01-15T05:53:15;97978.66;;;-3.96;94.73
73338;BME280;61575;49.908;35.556;2024-01-15T05:56:17;97978.53;;;-3.94;94.45
73338;BME280;61575;49.908;35.556;2024-01-15T05:59:19;97975.66;;;-3.91;94.55
73338;BME280;61575;49.908;35.556;2024-01-15T06:02:21;97976.28;;;-3.88;93.85
73338;BME280;61575;49.908;35.556;2024-01-15T06:05:23;97973.75;;;-3.89;93.77
73338;BME280;61575;49.908;35.556;2024-01-15T06:08:25;97975.31;;;-3.87;93.71
73338;BME280;61575;49.908;35.556;2024-01-15T06:11:30;97978.19;;;-3.90;93.58
73338;BME280;61575;49.908;35.556;2024-01-15T06:14:32;97974.25;;;-3.84;93.90
73338;BME280;61575;49.908;35.556;2024-01-15T06:17:34;97984.25;;;-3.78;93.83
73338;BME280;61575;49.908;35.556;2024-01-15T06:20:36;97978.44;;;-3.71;93.37
73338;BME280;61575;49.908;35.556;2024-01-15T06:23:39;97985.34;;;-3.69;93.22
73338;BME280;61575;49.908;35.556;2024-01-15T06:26:41;97983.56;;;-3.69;92.68
73338;BME280;61575;49.908;35.556;2024-01-15T06:29:45;97977.84;;;-3.74;92.85
73338;BME280;61575;49.908;35.556;2024-01-15T06:32:51;97979.97;;;-3.68;92.76
73338;BME280;61575;49.908;35.556;2024-01-15T06:35:54;97977.72;;;-3.61;92.82
73338;BME280;61575;49.908;35.556;2024-01-15T06:38:56;97976.53;;;-3.57;92.18
73338;BME280;61575;49.908;35.556;2024-01-15T06:41:58;97980.22;;;-3.60;92.04
73338;BME280;61575;49.908;35.556;2024-01-15T06:45:00;97981.19;;;-3.50;91.79
73338;BME280;61575;49.908;35.556;2024-01-15T06:48:02;97985.47;;;-3.49;91.56
73338;BME280;61575;49.908;35.556;2024-01-15T06:51:04;97975.44;;;-3.44;91.66
73338;BME280;61575;49.908;35.556;2024-01-15T06:54:06;97990.34;;;-3.44;91.09
73338;BME280;61575;49.908;35.556;2024-01-15T06:57:08;97995.97;;;-3.38;91.37
73338;BME280;61575;49.908;35.556;2024-01-15T07:00:10;98000.25;;;-3.36;90.72
73338;BME280;61575;49.908;35.556;2024-01-15T07:03:12;98004.19;;;-3.31;90.43
73338;BME280;61575;49.908;35.556;2024-01-15T07:06:15;98006.34;;;-3.25;90.44
73338;BME280;61575;49.908;35.556;2024-01-15T07:09:18;98000.97;;;-3.23;89.96
73338;BME280;61575;49.908;35.556;2024-01-15T07:12:20;98021.47;;;-3.17;90.21
73338;BME280;61575;49.908;35.556;2024-01-15T07:15:22;98012.31;;;-3.23;89.88
73338;BME280;61575;49.908;35.556;2024-01-15T07:18:24;98024.00;;;-3.16;89.55
73338;BME280;61575;49.908;35.556;2024-01-15T07:21:27;98017.28;;;-3.09;89.17
73338;BME280;61575;49.908;35.556;2024-01-15T07:24:29;98018.50;;;-3.24;88.51
73338;BME280;61575;49.908;35.556;2024-01-15T07:27:31;98010.16;;;-3.18;89.17
73338;BME280;61575;49.908;35.556;2024-01-15T07:30:34;98011.56;;;-3.14;89.08
73338;BME280;61575;49.908;35.556;2024-01-15T07:33:36;98018.13;;;-3.08;89.05
73338;BME280;61575;49.908;35.556;2024-01-15T07:36:38;98017.06;;;-3.06;88.66
73338;BME280;61575;49.908;35.556;2024-01-15T07:39:40;98010.47;;;-3.00;88.05
73338;BME280;61575;49.908;35.556;2024-01-15T07:42:45;98015.38;;;-2.95;87.90
73338;BME280;61575;49.908;35.556;2024-01-15T07:45:47;98020.50;;;-2.94;87.55
73338;BME280;61575;49.908;35.556;2024-01-15T07:48:49;98020.72;;;-2.86;87.50
73338;BME280;61575;49.908;35.556;2024-01-15T07:51:53;98020.94;;;-2.78;87.40
73338;BME280;61575;49.908;35.556;2024-01-15T07:54:55;98023.44;;;-2.76;87.20
73338;BME280;61575;49.908;35.556;2024-01-15T07:57:57;98035.03;;;-2.79;86.54
73338;BME280;61575;49.908;35.556;2024-01-15T08:01:15;98038.13;;;-2.74;86.73
73338;BME280;61575;49.908;35.556;2024-01-15T08:04:18;98045.28;;;-2.64;86.28
73338;BME280;61575;49.908;35.556;2024-01-15T08:07:21;98045.25;;;-2.53;86.52
73338;BME280;61575;49.908;35.556;2024-01-15T08:10:23;98046.16;;;-2.43;86.61
73338;BME280;61575;49.908;35.556;2024-01-15T08:13:26;98038.41;;;-2.45;85.65
73338;BME280;61575;49.908;35.556;2024-01-15T08:16:28;98038.50;;;-2.35;85.91
73338;BME280;61575;49.908;35.556;2024-01-15T08:19:31;98044.47;;;-2.33;85.53
73338;BME280;61575;49.908;35.556;2024-01-15T08:22:33;98044.22;;;-2.30;84.98
73338;BME280;61575;49.908;35.556;2024-01-15T08:25:35;98036.97;;;-2.17;84.97
73338;BME280;61575;49.908;35.556;2024-01-15T08:28:37;98037.31;;;-2.10;84.70
73338;BME280;61575;49.908;35.556;2024-01-15T08:31:40;98037.19;;;-2.09;84.48
73338;BME280;61575;49.908;35.556;2024-01-15T08:34:43;98032.13;;;-2.00;84.24
73338;BME280;61575;49.908;35.556;2024-01-15T08:37:45;98032.25;;;-2.02;83.82
73338;BME280;61575;49.908;35.556;2024-01-15T08:40:48;98031.09;;;-1.88;83.92
73338;BME280;61575;49.908;35.556;2024-01-15T08:43:50;98030.78;;;-1.95;83.32
73338;BME280;61575;49.908;35.556;2024-01-15T08:46:54;98023.38;;;-1.80;83.22
73338;BME280;61575;49.908;35.556;2024-01-15T08:49:56;98018.84;;;-1.78;83.15
73338;BME280;61575;49.908;35.556;2024-01-15T08:52:59;98007.44;;;-1.58;83.04
73338;BME280;61575;49.908;35.556;2024-01-15T08:56:01;98016.94;;;-1.46;82.10
73338;BME280;61575;49.908;35.556;2024-01-15T08:59:03;98012.69;;;-1.37;81.97
73338;BME280;61575;49.908;35.556;2024-01-15T09:02:05;98012.19;;;-1.52;81.29
73338;BME280;61575;49.908;35.556;2024-01-15T09:05:07;98006.72;;;-1.39;81.33
73338;BME280;61575;49.908;35.556;2024-01-15T09:08:10;98003.72;;;-1.25;81.22
73338;BME280;61575;49.908;35.556;2024-01-15T09:11:12;97995.97;;;-1.07;80.86
73338;BME280;61575;49.908;35.556;2024-01-15T09:14:14;97999.91;;;-0.92;80.43
73338;BME280;61575;49.908;35.556;2024-01-15T09:17:20;98004.25;;;-0.71;80.14
73338;BME280;61575;49.908;35.556;2024-01-15T09:20:23;98006.22;;;-0.54;79.13
73338;BME280;61575;49.908;35.556;2024-01-15T09:23:27;98006.66;;;-0.39;79.24
73338;BME280;61575;49.908;35.556;2024-01-15T09:26:30;98002.19;;;-0.39;77.80
73338;BME280;61575;49.908;35.556;2024-01-15T09:29:32;98003.31;;;-0.41;77.49
73338;BME280;61575;49.908;35.556;2024-01-15T09:32:34;98006.50;;;-0.38;77.55
73338;BME280;61575;49.908;35.556;2024-01-15T09:35:36;98020.81;;;-0.31;77.50
73338;BME280;61575;49.908;35.556;2024-01-15T09:38:40;98017.88;;;-0.28;77.04
73338;BME280;61575;49.908;35.556;2024-01-15T09:41:43;98019.56;;;-0.27;77.34
73338;BME280;61575;49.908;35.556;2024-01-15T09:44:46;98022.19;;;-0.36;76.87
73338;BME280;61575;49.908;35.556;2024-01-15T09:47:48;98027.75;;;-0.39;76.76
73338;BME280;61575;49.908;35.556;2024-01-15T09:50:50;98020.78;;;-0.50;76.59
73338;BME280;61575;49.908;35.556;2024-01-15T09:53:53;98024.69;;;-0.45;76.50
73338;BME280;61575;49.908;35.556;2024-01-15T09:56:56;98023.84;;;-0.45;76.56
73338;BME280;61575;49.908;35.556;2024-01-15T09:59:59;98010.91;;;-0.67;76.53
73338;BME280;61575;49.908;35.556;2024-01-15T10:03:06;98017.44;;;-0.71;76.60
73338;BME280;61575;49.908;35.556;2024-01-15T10:06:08;98017.69;;;-0.74;76.81
73338;BME280;61575;49.908;35.556;2024-01-15T10:09:12;98032.84;;;-0.67;77.28
73338;BME280;61575;49.908;35.556;2024-01-15T10:12:16;98030.38;;;-0.49;76.74
73338;BME280;61575;49.908;35.556;2024-01-15T10:15:22;98026.63;;;-0.37;76.53
73338;BME280;61575;49.908;35.556;2024-01-15T10:18:25;98023.00;;;-0.55;75.71
73338;BME280;61575;49.908;35.556;2024-01-15T10:21:27;98024.09;;;-0.58;76.15
73338;BME280;61575;49.908;35.556;2024-01-15T10:24:30;98023.84;;;-0.55;75.82
73338;BME280;61575;49.908;35.556;2024-01-15T10:27:32;98032.72;;;-0.46;75.62
73338;BME280;61575;49.908;35.556;2024-01-15T10:30:34;98052.84;;;-0.45;75.98
73338;BME280;61575;49.908;35.556;2024-01-15T10:33:37;98027.88;;;-0.51;75.74
73338;BME280;61575;49.908;35.556;2024-01-15T10:36:40;98018.16;;;-0.50;75.62
73338;BME280;61575;49.908;35.556;2024-01-15T10:39:43;98024.13;;;-0.48;75.84
73338;BME280;61575;49.908;35.556;2024-01-15T10:42:46;98019.69;;;-0.48;75.63
73338;BME280;61575;49.908;35.556;2024-01-15T10:45:50;98017.31;;;-0.51;75.39
73338;BME280;61575;49.908;35.556;2024-01-15T10:48:53;98019.53;;;-0.46;75.79
73338;BME280;61575;49.908;35.556;2024-01-15T10:51:56;98004.28;;;-0.52;75.18
73338;BME280;61575;49.908;35.556;2024-01-15T10:54:59;98009.81;;;-0.55;75.35
73338;BME280;61575;49.908;35.556;2024-01-15T10:58:09;98004.00;;;-0.49;75.45
73338;BME280;61575;49.908;35.556;2024-01-15T11:01:12;98000.66;;;-0.41;75.29
73338;BME280;61575;49.908;35.556;2024-01-15T11:04:15;98018.56;;;-0.45;75.16
73338;BME280;61575;49.908;35.556;2024-01-15T11:07:21;98020.09;;;-0.42;75.57
73338;BME280;61575;49.908;35.556;2024-01-15T11:13:42;98014.25;;;-0.56;75.58
73338;BME280;61575;49.908;35.556;2024-01-15T11:16:58;98023.00;;;-0.65;74.97
73338;BME280;61575;49.908;35.556;2024-01-15T11:20:06;98014.41;;;-0.57;75.62
73338;BME280;61575;49.908;35.556;2024-01-15T11:23:08;98013.44;;;-0.56;76.06
73338;BME280;61575;49.908;35.556;2024-01-15T11:26:46;98022.84;;;-0.63;75.63
73338;BME280;61575;49.908;35.556;2024-01-15T11:30:02;98017.31;;;-0.60;75.87
73338;BME280;61575;49.908;35.556;2024-01-15T11:33:05;98024.66;;;-0.54;75.95
73338;BME280;61575;49.908;35.556;2024-01-15T11:36:09;98016.06;;;-0.56;75.85
73338;BME280;61575;49.908;35.556;2024-01-15T11:42:29;98017.59;;;-0.63;76.01
73338;BME280;61575;49.908;35.556;2024-01-15T11:45:31;98019.78;;;-0.78;75.95
73338;BME280;61575;49.908;35.556;2024-01-15T11:48:42;98024.63;;;-0.73;76.32
73338;BME280;61575;49.908;35.556;2024-01-15T11:51:46;98018.41;;;-0.72;76.28
73338;BME280;61575;49.908;35.556;2024-01-15T11:55:10;98013.13;;;-0.72;76.06
73338;BME280;61575;49.908;35.556;2024-01-15T11:58:13;98018.25;;;-0.81;75.92
73338;BME280;61575;49.908;35.556;2024-01-15T12:01:15;98011.59;;;-0.75;76.08
73338;BME280;61575;49.908;35.556;2024-01-15T12:04:20;98008.94;;;-0.85;76.17
73338;BME280;61575;49.908;35.556;2024-01-15T12:07:23;98001.88;;;-0.84;76.39
73338;BME280;61575;49.908;35.556;2024-01-15T12:10:25;98004.50;;;-0.84;76.19
73338;BME280;61575;49.908;35.556;2024-01-15T12:13:27;98007.97;;;-0.84;76.30
73338;BME280;61575;49.908;35.556;2024-01-15T12:16:29;97999.06;;;-0.92;75.95
73338;BME280;61575;49.908;35.556;2024-01-15T12:19:32;98001.56;;;-0.91;76.27
73338;BME280;61575;49.908;35.556;2024-01-15T12:22:34;97994.06;;;-0.95;76.34
73338;BME280;61575;49.908;35.556;2024-01-15T12:25:56;97993.09;;;-0.94;76.27
73338;BME280;61575;49.908;35.556;2024-01-15T12:29:01;97991.84;;;-1.00;76.16
73338;BME280;61575;49.908;35.556;2024-01-15T12:32:05;97987.41;;;-0.99;76.34
73338;BME280;61575;49.908;35.556;2024-01-15T12:35:07;97988.50;;;-1.02;76.38
73338;BME280;61575;49.908;35.556;2024-01-15T12:38:10;97991.16;;;-1.12;76.30
73338;BME280;61575;49.908;35.556;2024-01-15T12:41:13;97998.88;;;-1.20;76.51
73338;BME280;61575;49.908;35.556;2024-01-15T12:44:16;98002.88;;;-1.25;76.31
73338;BME280;61575;49.908;35.556;2024-01-15T12:47:19;98003.59;;;-1.23;76.39
73338;BME280;61575;49.908;35.556;2024-01-15T12:50:24;98002.34;;;-1.19;76.62
73338;BME280;61575;49.908;35.556;2024-01-15T12:53:27;98008.59;;;-1.20;76.29
73338;BME280;61575;49.908;35.556;2024-01-15T12:56:29;98008.16;;;-1.25;76.27
73338;BME280;61575;49.908;35.556;2024-01-15T12:59:34;98002.88;;;-1.25;76.36
73338;BME280;61575;49.908;35.556;2024-01-15T13:02:36;98008.94;;;-1.34;76.31
73338;BME280;61575;49.908;35.556;2024-01-15T13:05:40;98004.34;;;-1.42;76.07
73338;BME280;61575;49.908;35.556;2024-01-15T13:08:43;98014.03;;;-1.42;76.57
73338;BME280;61575;49.908;35.556;2024-01-15T13:11:45;98009.03;;;-1.46;76.54
73338;BME280;61575;49.908;35.556;2024-01-15T13:14:47;98016.81;;;-1.44;76.74
73338;BME280;61575;49.908;35.556;2024-01-15T13:17:49;97998.63;;;-1.47;76.71
73338;BME280;61575;49.908;35.556;2024-01-15T13:20:51;98013.03;;;-1.51;76.48
73338;BME280;61575;49.908;35.556;2024-01-15T13:23:53;98012.59;;;-1.56;76.39
73338;BME280;61575;49.908;35.556;2024-01-15T13:26:55;98012.97;;;-1.61;76.58
73338;BME280;61575;49.908;35.556;2024-01-15T13:29:58;98005.47;;;-1.65;76.34
73338;BME280;61575;49.908;35.556;2024-01-15T13:33:02;98002.72;;;-1.64;76.56
73338;BME280;61575;49.908;35.556;2024-01-15T13:36:07;98010.03;;;-1.67;76.52
73338;BME280;61575;49.908;35.556;2024-01-15T13:39:12;97996.56;;;-1.74;76.55
73338;BME280;61575;49.908;35.556;2024-01-15T13:42:15;97995.94;;;-1.87;76.84
73338;BME280;61575;49.908;35.556;2024-01-15T13:45:18;97994.25;;;-1.88;76.73
73338;BME280;61575;49.908;35.556;2024-01-15T13:48:20;97999.66;;;-1.90;76.90
73338;BME280;61575;49.908;35.556;2024-01-15T13:51:22;98001.06;;;-1.86;77.04
73338;BME280;61575;49.908;35.556;2024-01-15T13:54:25;98004.22;;;-1.92;76.89
73338;BME280;61575;49.908;35.556;2024-01-15T13:57:46;97991.88;;;-1.91;76.95
73338;BME280;61575;49.908;35.556;2024-01-15T14:00:51;97989.78;;;-1.97;77.07
73338;BME280;61575;49.908;35.556;2024-01-15T14:03:54;97989.06;;;-1.99;77.01
73338;BME280;61575;49.908;35.556;2024-01-15T14:06:56;97983.81;;;-1.99;77.22
73338;BME280;61575;49.908;35.556;2024-01-15T14:09:58;97983.09;;;-2.01;77.22
73338;BME280;61575;49.908;35.556;2024-01-15T14:13:00;97986.44;;;-1.99;77.36
73338;BME280;61575;49.908;35.556;2024-01-15T14:16:02;97982.72;;;-1.97;77.86
73338;BME280;61575;49.908;35.556;2024-01-15T14:19:04;97986.06;;;-1.95;77.80
73338;BME280;61575;49.908;35.556;2024-01-15T14:22:08;97979.97;;;-1.95;77.92
73338;BME280;61575;49.908;35.556;2024-01-15T14:25:10;97982.59;;;-1.95;78.34
73338;BME280;61575;49.908;35.556;2024-01-15T14:28:12;97977.38;;;-1.86;78.76
73338;BME280;61575;49.908;35.556;2024-01-15T14:31:14;97983.47;;;-1.85;78.51
73338;BME280;61575;49.908;35.556;2024-01-15T14:34:16;97987.06;;;-1.86;78.82
73338;BME280;61575;49.908;35.556;2024-01-15T14:37:19;97990.66;;;-1.87;78.86
73338;BME280;61575;49.908;35.556;2024-01-15T14:40:24;97991.13;;;-1.82;78.90
73338;BME280;61575;49.908;35.556;2024-01-15T14:43:27;97988.75;;;-1.85;79.19
73338;BME280;61575;49.908;35.556;2024-01-15T14:46:29;97985.16;;;-1.84;79.04
73338;BME280;61575;49.908;35.556;2024-01-15T14:49:31;97983.91;;;-1.80;79.37
73338;BME280;61575;49.908;35.556;2024-01-15T14:52:34;97974.38;;;-1.81;79.68
73338;BME280;61575;49.908;35.556;2024-01-15T14:55:37;97965.75;;;-1.83;79.53
73338;BME280;61575;49.908;35.556;2024-01-15T14:58:39;97960.50;;;-1.83;80.03
73338;BME280;61575;49.908;35.556;2024-01-15T15:01:41;97966.47;;;-1.81;80.13
73338;BME280;61575;49.908;35.556;2024-01-15T15:04:44;97957.03;;;-1.84;80.33
73338;BME280;61575;49.908;35.556;2024-01-15T15:07:51;97957.75;;;-1.82;80.53
73338;BME280;61575;49.908;35.556;2024-01-15T15:10:53;97950.25;;;-1.86;80.86
73338;BME280;61575;49.908;35.556;2024-01-15T15:13:56;97958.84;;;-1.84;80.92
73338;BME280;61575;49.908;35.556;2024-01-15T15:16:59;97960.75;;;-1.86;81.20
73338;BME280;61575;49.908;35.556;2024-01-15T15:20:00;97962.16;;;-1.82;81.35
73338;BME280;61575;49.908;35.556;2024-01-15T15:23:05;97953.06;;;-1.78;81.25
73338;BME280;61575;49.908;35.556;2024-01-15T15:26:09;97946.13;;;-1.79;81.45
73338;BME280;61575;49.908;35.556;2024-01-15T15:29:11;97954.41;;;-1.84;81.24
73338;BME280;61575;49.908;35.556;2024-01-15T15:32:14;97963.66;;;-1.89;81.54
73338;BME280;61575;49.908;35.556;2024-01-15T15:35:15;97942.16;;;-1.94;81.61
73338;BME280;61575;49.908;35.556;2024-01-15T15:38:18;97947.56;;;-1.96;81.85
73338;BME280;61575;49.908;35.556;2024-01-15T15:41:20;97944.09;;;-1.96;82.24
73338;BME280;61575;49.908;35.556;2024-01-15T15:44:22;97945.31;;;-2.00;82.64
73338;BME280;61575;49.908;35.556;2024-01-15T15:47:24;97951.53;;;-2.01;82.48
73338;BME280;61575;49.908;35.556;2024-01-15T15:50:26;97961.47;;;-2.05;82.48
73338;BME280;61575;49.908;35.556;2024-01-15T15:53:30;97959.38;;;-2.11;83.30
73338;BME280;61575;49.908;35.556;2024-01-15T15:56:33;97958.91;;;-2.16;83.32
73338;BME280;61575;49.908;35.556;2024-01-15T15:59:39;97953.78;;;-2.18;83.39
73338;BME280;61575;49.908;35.556;2024-01-15T16:02:42;97947.81;;;-2.20;83.45